createdAt,value
2018-05-09T00:01:17.784Z,65.50
2018-05-09T00:03:45.299Z,65.60
2018-05-09T00:06:12.824Z,65.50
2018-05-09T00:08:40.329Z,65.50
2018-05-09T00:11:07.859Z,65.50
2018-05-09T00:13:35.356Z,65.50
2018-05-09T00:16:02.895Z,65.50
2018-05-09T00:18:30.385Z,65.50
2018-05-09T00:20:58.685Z,65.60
2018-05-09T00:23:26.192Z,65.50
2018-05-09T00:25:53.907Z,65.50
2018-05-09T00:28:21.409Z,65.50
2018-05-09T00:30:48.900Z,65.50
2018-05-09T00:33:17.198Z,65.40
2018-05-09T00:35:44.735Z,65.30
2018-05-09T00:38:12.223Z,65.80
2018-05-09T00:40:39.798Z,66.40
2018-05-09T00:43:07.282Z,66.20
2018-05-09T00:45:34.821Z,66.70
2018-05-09T00:48:02.315Z,66.30
2018-05-09T00:50:30.619Z,66.60
2018-05-09T00:52:58.880Z,66.50
2018-05-09T00:55:27.170Z,67.10
2018-05-09T00:57:55.511Z,67.30
2018-05-09T01:00:23.052Z,67.30
2018-05-09T01:02:50.541Z,67.90
2018-05-09T01:05:18.834Z,68.40
2018-05-09T01:07:47.107Z,68.30
2018-05-09T01:10:15.720Z,68.90
2018-05-09T01:12:43.328Z,68.60
2018-05-09T01:15:10.819Z,68.80
2018-05-09T01:17:38.341Z,69.00
2018-05-09T01:20:05.831Z,68.50
2018-05-09T01:22:34.347Z,69.30
2018-05-09T01:25:01.854Z,69.30
2018-05-09T01:27:30.894Z,69.20
2018-05-09T01:29:58.459Z,69.20
2018-05-09T01:32:26.156Z,69.20
2018-05-09T01:34:53.746Z,69.30
2018-05-09T01:37:21.279Z,69.30
2018-05-09T01:39:48.770Z,69.40
2018-05-09T01:42:17.062Z,69.50
2018-05-09T01:44:44.562Z,69.40
2018-05-09T01:47:12.277Z,69.60
2018-05-09T01:49:39.764Z,69.70
2018-05-09T01:52:07.287Z,69.50
2018-05-09T01:54:35.554Z,68.20
2018-05-09T01:57:04.646Z,68.00
2018-05-09T01:59:32.901Z,68.10
2018-05-09T02:02:00.431Z,68.00
2018-05-09T02:04:27.930Z,68.20
2018-05-09T02:06:55.460Z,67.90
2018-05-09T02:09:22.945Z,68.50
2018-05-09T02:11:51.248Z,68.30
2018-05-09T02:14:19.503Z,69.30
2018-05-09T02:16:47.820Z,69.40
2018-05-09T02:19:15.315Z,69.30
2018-05-09T02:21:44.323Z,69.30
2018-05-09T02:24:12.615Z,69.40
2018-05-09T02:26:40.869Z,69.10
2018-05-09T02:29:08.402Z,69.10
2018-05-09T02:31:35.891Z,69.40
2018-05-09T02:34:03.416Z,69.40
2018-05-09T02:36:31.064Z,68.80
2018-05-09T02:38:58.571Z,68.80
2018-05-09T02:41:26.123Z,69.40
2018-05-09T02:43:53.608Z,69.40
2018-05-09T02:46:21.091Z,69.40
2018-05-09T02:48:48.623Z,69.80
2018-05-09T02:51:16.879Z,69.60
2018-05-09T02:53:44.408Z,69.50
2018-05-09T02:56:11.894Z,70.20
2018-05-09T02:58:39.434Z,70.40
2018-05-09T03:01:06.930Z,70.40
2018-05-09T03:03:35.231Z,69.60
2018-05-09T03:06:02.720Z,69.60
2018-05-09T03:08:30.302Z,69.50
2018-05-09T03:10:57.800Z,70.20
2018-05-09T03:13:25.332Z,69.60
2018-05-09T03:15:53.599Z,70.30
2018-05-09T03:18:22.648Z,70.50
2018-05-09T03:20:50.138Z,70.40
2018-05-09T03:23:17.672Z,70.50
2018-05-09T03:25:45.323Z,70.20
2018-05-09T03:28:12.858Z,70.20
2018-05-09T03:30:41.126Z,70.00
2018-05-09T03:33:09.386Z,70.70
2018-05-09T03:35:37.682Z,71.50
2018-05-09T03:38:05.940Z,70.50
2018-05-09T03:40:34.233Z,70.90
2018-05-09T03:43:02.494Z,70.80
2018-05-09T03:45:31.362Z,72.00
2018-05-09T03:47:58.852Z,71.40
2018-05-09T03:50:27.162Z,72.40
2018-05-09T03:52:54.654Z,72.20
2018-05-09T03:55:22.198Z,72.40
2018-05-09T03:57:49.687Z,73.40
2018-05-09T04:00:17.209Z,73.00
2018-05-09T04:02:56.570Z,72.80
2018-05-09T04:05:35.987Z,73.10
2018-05-09T04:08:15.123Z,72.70
2018-05-09T04:10:43.554Z,72.70
2018-05-09T04:13:11.061Z,71.70
2018-05-09T04:15:38.596Z,72.40
2018-05-09T04:18:06.091Z,72.20
2018-05-09T04:20:33.680Z,71.50
2018-05-09T04:23:01.258Z,72.70
2018-05-09T04:25:28.745Z,73.00
2018-05-09T04:27:56.292Z,72.30
2018-05-09T04:30:23.786Z,72.30
2018-05-09T04:32:51.327Z,73.00
2018-05-09T04:35:18.818Z,72.90
2018-05-09T04:37:46.360Z,73.20
2018-05-09T04:40:13.873Z,72.50
2018-05-09T04:42:41.411Z,71.20
2018-05-09T04:45:09.666Z,72.00
2018-05-09T04:47:37.195Z,71.90
2018-05-09T04:50:04.742Z,71.90
2018-05-09T04:52:32.240Z,71.80
2018-05-09T04:54:59.838Z,71.30
2018-05-09T04:57:27.290Z,71.10
2018-05-09T04:59:54.838Z,71.10
2018-05-09T05:02:23.111Z,70.80
2018-05-09T05:04:51.411Z,70.20
2018-05-09T05:07:18.913Z,70.20
2018-05-09T05:09:46.430Z,70.20
2018-05-09T05:12:13.930Z,70.40
2018-05-09T05:14:41.466Z,70.50
2018-05-09T05:17:08.990Z,70.70
2018-05-09T05:19:36.486Z,70.30
2018-05-09T05:22:04.037Z,70.40
2018-05-09T05:24:31.527Z,69.90
2018-05-09T05:26:59.103Z,69.50
2018-05-09T05:29:26.578Z,69.00
2018-05-09T05:31:54.918Z,68.00
2018-05-09T05:34:22.422Z,67.90
2018-05-09T05:36:49.977Z,67.30
2018-05-09T05:39:18.234Z,67.10
2018-05-09T05:41:45.769Z,67.00
2018-05-09T05:44:13.264Z,67.70
2018-05-09T05:46:40.808Z,66.60
2018-05-09T05:49:09.079Z,66.10
2018-05-09T05:51:36.616Z,66.10
2018-05-09T05:54:04.115Z,66.00
2018-05-09T05:56:31.791Z,66.00
2018-05-09T05:58:59.302Z,65.90
2018-05-09T06:01:26.858Z,65.90
2018-05-09T06:03:54.395Z,65.70
2018-05-09T06:06:21.957Z,65.10
2018-05-09T06:08:50.311Z,64.70
2018-05-09T06:11:17.834Z,64.60
2018-05-09T06:13:45.379Z,64.60
2018-05-09T06:16:12.865Z,64.60
2018-05-09T06:18:41.196Z,65.40
2018-05-09T06:21:08.703Z,65.30
2018-05-09T06:23:36.239Z,65.80
2018-05-09T06:26:03.763Z,66.60
2018-05-09T06:28:31.302Z,66.40
2018-05-09T06:30:58.815Z,65.80
2018-05-09T06:33:26.380Z,65.80
2018-05-09T06:35:53.878Z,65.40
2018-05-09T06:38:21.413Z,65.60
2018-05-09T06:40:49.710Z,63.80
2018-05-09T06:43:17.255Z,63.80
2018-05-09T06:45:45.526Z,64.00
2018-05-09T06:48:13.803Z,64.00
2018-05-09T06:50:42.112Z,64.10
2018-05-09T06:53:09.619Z,64.10
2018-05-09T06:55:37.149Z,63.60
2018-05-09T06:58:04.652Z,62.90
2018-05-09T07:00:32.196Z,62.60
2018-05-09T07:02:59.691Z,62.90
2018-05-09T07:05:27.227Z,62.90
2018-05-09T07:07:55.490Z,62.70
2018-05-09T07:10:23.791Z,64.30
2018-05-09T07:12:52.058Z,64.00
2018-05-09T07:15:19.607Z,63.90
2018-05-09T07:17:48.628Z,64.40
2018-05-09T07:20:16.931Z,64.60
2018-05-09T07:22:44.425Z,64.60
2018-05-09T07:25:12.010Z,64.70
2018-05-09T07:27:40.275Z,64.90
2018-05-09T07:30:08.578Z,64.80
2018-05-09T07:32:36.847Z,64.80
2018-05-09T07:35:05.154Z,64.60
2018-05-09T07:37:32.655Z,64.60
2018-05-09T07:40:00.203Z,64.10
2018-05-09T07:42:27.695Z,63.90
2018-05-09T07:44:55.966Z,63.70
2018-05-09T07:47:23.487Z,63.70
2018-05-09T07:49:50.983Z,64.30
2018-05-09T07:52:18.527Z,63.50
2018-05-09T07:54:46.042Z,63.60
2018-05-09T07:57:13.570Z,63.20
2018-05-09T07:59:41.079Z,62.90
2018-05-09T08:02:08.602Z,63.10
2018-05-09T08:04:36.107Z,63.00
2018-05-09T08:07:03.650Z,62.40
2018-05-09T08:09:31.184Z,62.50
2018-05-09T08:11:58.738Z,62.10
2018-05-09T08:14:26.252Z,62.70
2018-05-09T08:16:53.800Z,62.90
2018-05-09T08:19:21.300Z,63.10
2018-05-09T08:21:48.838Z,63.30
2018-05-09T08:24:16.361Z,62.90
2018-05-09T08:26:43.895Z,62.70
2018-05-09T08:29:11.386Z,62.10
2018-05-09T08:31:38.878Z,62.50
2018-05-09T08:34:06.419Z,62.00
2018-05-09T08:36:33.975Z,61.50
2018-05-09T08:39:01.454Z,61.60
2018-05-09T08:41:28.963Z,61.70
2018-05-09T08:43:56.535Z,61.70
2018-05-09T08:46:24.016Z,61.30
2018-05-09T08:48:52.306Z,60.10
2018-05-09T08:51:19.797Z,60.10
2018-05-09T08:53:47.366Z,58.90
2018-05-09T08:56:14.850Z,58.60
2018-05-09T08:58:42.390Z,58.50
2018-05-09T09:01:09.888Z,59.00
2018-05-09T09:03:37.428Z,59.40
2018-05-09T09:06:04.946Z,58.20
2018-05-09T09:08:32.511Z,58.40
2018-05-09T09:11:00.038Z,57.60
2018-05-09T09:13:28.302Z,59.20
2018-05-09T09:15:55.857Z,58.30
2018-05-09T09:18:23.360Z,58.70
2018-05-09T09:20:50.917Z,58.70
2018-05-09T09:23:18.475Z,59.30
2018-05-09T09:25:46.007Z,59.30
2018-05-09T09:28:13.510Z,59.30
2018-05-09T09:30:41.042Z,58.90
2018-05-09T09:33:09.308Z,59.30
2018-05-09T09:35:37.603Z,59.30
2018-05-09T09:38:05.228Z,59.30
2018-05-09T09:40:32.763Z,59.30
2018-05-09T09:43:00.266Z,59.40
2018-05-09T09:45:27.798Z,59.30
2018-05-09T09:47:55.323Z,59.50
2018-05-09T09:50:22.873Z,59.10
2018-05-09T09:52:50.371Z,58.40
2018-05-09T09:55:17.892Z,57.60
2018-05-09T09:57:46.271Z,57.10
2018-05-09T10:00:13.807Z,56.80
2018-05-09T10:02:43.203Z,56.20
2018-05-09T10:05:10.700Z,56.20
2018-05-09T10:07:38.242Z,55.70
2018-05-09T10:10:05.731Z,55.70
2018-05-09T10:12:33.273Z,55.40
2018-05-09T10:15:00.780Z,55.80
2018-05-09T10:17:28.314Z,56.00
2018-05-09T10:19:55.827Z,57.00
2018-05-09T10:22:23.366Z,56.60
2018-05-09T10:24:51.623Z,56.70
2018-05-09T10:27:19.168Z,56.70
2018-05-09T10:29:46.663Z,57.60
2018-05-09T10:32:14.207Z,57.50
2018-05-09T10:34:41.735Z,57.30
2018-05-09T10:37:09.232Z,56.60
2018-05-09T10:39:36.780Z,56.50
2018-05-09T10:42:04.267Z,55.70
2018-05-09T10:44:32.573Z,55.20
2018-05-09T10:47:00.123Z,55.20
2018-05-09T10:49:27.662Z,56.50
2018-05-09T10:51:55.968Z,56.60
2018-05-09T10:54:23.499Z,56.50
2018-05-09T10:56:51.759Z,56.60
2018-05-09T10:59:20.059Z,56.70
2018-05-09T11:01:47.558Z,56.60
2018-05-09T11:04:15.094Z,56.60
2018-05-09T11:06:42.590Z,56.50
2018-05-09T11:09:10.131Z,56.50
2018-05-09T11:11:37.643Z,56.50
2018-05-09T11:14:05.197Z,57.20
2018-05-09T11:16:33.602Z,57.40
2018-05-09T11:19:01.139Z,57.40
2018-05-09T11:21:29.405Z,57.40
2018-05-09T11:23:57.712Z,56.80
2018-05-09T11:26:25.215Z,56.90
2018-05-09T11:28:52.746Z,57.30
2018-05-09T11:31:20.248Z,57.40
2018-05-09T11:33:47.850Z,57.60
2018-05-09T11:36:15.352Z,58.10
2018-05-09T11:38:42.903Z,57.70
2018-05-09T11:41:10.716Z,57.80
2018-05-09T11:43:38.251Z,58.30
2018-05-09T11:46:05.770Z,58.00
2018-05-09T11:48:33.282Z,58.10
2018-05-09T11:51:01.540Z,57.50
2018-05-09T11:53:29.154Z,57.50
2018-05-09T11:55:56.731Z,57.60
2018-05-09T11:58:24.234Z,57.70
2018-05-09T12:00:52.535Z,57.80
2018-05-09T12:03:20.042Z,57.80
2018-05-09T12:05:47.584Z,58.10
2018-05-09T12:08:15.105Z,58.80
2018-05-09T12:10:42.774Z,58.00
2018-05-09T12:13:10.947Z,58.50
2018-05-09T12:15:38.446Z,58.40
2018-05-09T12:18:05.987Z,58.20
2018-05-09T12:20:33.491Z,58.30
2018-05-09T12:23:01.791Z,59.00
2018-05-09T12:25:29.306Z,58.40
2018-05-09T12:27:56.849Z,58.30
2018-05-09T12:30:24.356Z,57.80
2018-05-09T12:32:52.671Z,57.30
2018-05-09T12:35:20.167Z,57.10
2018-05-09T12:37:47.676Z,57.00
2018-05-09T12:40:15.211Z,57.00
2018-05-09T12:42:42.722Z,57.50
2018-05-09T12:45:10.259Z,57.00
2018-05-09T12:47:37.754Z,57.00
2018-05-09T12:50:05.278Z,57.20
2018-05-09T12:52:32.791Z,57.30
2018-05-09T12:55:00.704Z,57.30
2018-05-09T12:57:29.019Z,57.20
2018-05-09T12:59:56.559Z,57.40
2018-05-09T13:02:24.058Z,56.80
2018-05-09T13:04:52.366Z,56.80
2018-05-09T13:07:20.068Z,56.60
2018-05-09T13:09:47.617Z,56.20
2018-05-09T13:12:15.115Z,55.40
2018-05-09T13:14:42.661Z,52.90
2018-05-09T13:17:10.163Z,51.40
2018-05-09T13:19:37.777Z,48.90
2018-05-09T13:22:05.261Z,47.60
2018-05-09T13:24:34.293Z,45.60
2018-05-09T13:27:01.802Z,45.50
2018-05-09T13:29:30.130Z,46.10
2018-05-09T13:31:57.630Z,46.10
2018-05-09T13:34:25.175Z,45.20
2018-05-09T13:36:52.688Z,43.90
2018-05-09T13:39:20.451Z,43.60
2018-05-09T13:41:47.951Z,44.50
2018-05-09T13:44:15.478Z,45.60
2018-05-09T13:46:42.968Z,44.20
2018-05-09T13:49:10.510Z,44.80
2018-05-09T13:51:38.003Z,45.60
2018-05-09T13:54:05.548Z,46.50
2018-05-09T13:56:34.556Z,48.40
2018-05-09T13:59:02.386Z,48.30
2018-05-09T14:01:29.966Z,48.80
2018-05-09T14:03:57.478Z,51.00
2018-05-09T14:06:25.017Z,51.60
2018-05-09T14:08:53.279Z,62.30
2018-05-09T14:11:21.583Z,63.80
2018-05-09T14:13:49.135Z,63.10
2018-05-09T14:16:16.672Z,65.70
2018-05-09T14:18:44.169Z,66.20
2018-05-09T14:21:11.718Z,73.10
2018-05-09T14:23:39.218Z,74.50
2018-05-09T14:26:06.762Z,74.50
2018-05-09T14:28:34.481Z,76.50
2018-05-09T14:31:02.971Z,76.00
2018-05-09T14:33:31.237Z,76.20
2018-05-09T14:35:58.931Z,76.10
2018-05-09T14:38:26.439Z,77.20
2018-05-09T14:40:53.950Z,77.20
2018-05-09T14:43:21.490Z,78.50
2018-05-09T14:45:49.123Z,78.20
2018-05-09T14:48:16.673Z,76.40
2018-05-09T14:50:44.185Z,77.30
2018-05-09T14:53:11.715Z,77.70
2018-05-09T14:55:39.220Z,77.40
2018-05-09T14:58:06.756Z,76.70
2018-05-09T15:00:34.261Z,75.30
2018-05-09T15:03:01.795Z,75.40
2018-05-09T15:05:29.313Z,74.50
2018-05-09T15:07:57.641Z,75.40
2018-05-09T15:10:25.139Z,75.40
2018-05-09T15:12:52.673Z,73.10
2018-05-09T15:15:20.179Z,69.80
2018-05-09T15:17:47.751Z,67.50
2018-05-09T15:20:15.247Z,64.10
2018-05-09T15:22:42.786Z,61.70
2018-05-09T15:25:10.283Z,59.00
2018-05-09T15:27:37.794Z,57.10
2018-05-09T15:30:05.335Z,54.20
2018-05-09T15:32:33.322Z,51.80
2018-05-09T15:35:00.888Z,50.90
2018-05-09T15:37:28.427Z,47.80
2018-05-09T15:39:55.965Z,46.20
2018-05-09T15:42:24.234Z,43.60
2018-05-09T15:44:52.641Z,41.40
2018-05-09T15:47:20.071Z,41.30
2018-05-09T15:49:47.618Z,42.10
2018-05-09T15:52:15.130Z,38.40
2018-05-09T15:54:42.671Z,38.80
2018-05-09T15:57:10.281Z,37.30
2018-05-09T15:59:37.814Z,35.70
2018-05-09T16:02:05.326Z,35.40
2018-05-09T16:04:33.636Z,34.90
2018-05-09T16:07:01.163Z,34.90
2018-05-09T16:09:28.705Z,35.00
2018-05-09T16:11:56.222Z,34.90
2018-05-09T16:14:23.758Z,33.60
2018-05-09T16:16:51.499Z,31.90
2018-05-09T16:19:19.815Z,36.80
2018-05-09T16:21:47.309Z,36.80
2018-05-09T16:24:14.799Z,39.80
2018-05-09T16:26:42.338Z,41.00
2018-05-09T16:29:09.845Z,43.20
2018-05-09T16:31:37.405Z,45.60
2018-05-09T16:34:04.927Z,46.80
2018-05-09T16:36:33.236Z,49.30
2018-05-09T16:39:00.728Z,49.30
2018-05-09T16:41:28.263Z,50.70
2018-05-09T16:43:55.763Z,51.70
2018-05-09T16:46:23.326Z,51.30
2018-05-09T16:48:50.836Z,52.80
2018-05-09T16:51:18.389Z,53.50
2018-05-09T16:53:45.923Z,54.50
2018-05-09T16:56:13.489Z,55.20
2018-05-09T16:58:41.010Z,56.20
2018-05-09T17:01:08.562Z,56.50
2018-05-09T17:03:36.086Z,57.00
2018-05-09T17:06:03.671Z,56.90
2018-05-09T17:08:31.149Z,57.50
2018-05-09T17:10:58.643Z,57.80
2018-05-09T17:13:26.229Z,58.50
2018-05-09T17:15:53.732Z,58.50
2018-05-09T17:18:21.268Z,59.10
2018-05-09T17:20:48.766Z,59.30
2018-05-09T17:23:16.310Z,58.90
2018-05-09T17:25:43.819Z,58.80
2018-05-09T17:28:11.355Z,58.80
2018-05-09T17:30:39.642Z,59.80
2018-05-09T17:33:07.204Z,59.70
2018-05-09T17:35:34.707Z,59.00
2018-05-09T17:38:02.251Z,59.30
2018-05-09T17:40:29.809Z,59.40
2018-05-09T17:42:57.450Z,59.90
2018-05-09T17:45:24.960Z,59.60
2018-05-09T17:47:52.470Z,60.00
2018-05-09T17:50:20.006Z,60.10
2018-05-09T17:52:47.516Z,60.10
2018-05-09T17:55:15.075Z,61.00
2018-05-09T17:57:42.588Z,61.10
2018-05-09T18:00:10.137Z,61.50
2018-05-09T18:02:38.416Z,61.40
2018-05-09T18:05:06.768Z,61.40
2018-05-09T18:07:34.264Z,61.30
2018-05-09T18:10:01.808Z,61.30
2018-05-09T18:12:29.334Z,61.30
2018-05-09T18:14:56.886Z,61.20
2018-05-09T18:17:24.383Z,61.70
2018-05-09T18:19:51.941Z,62.00
2018-05-09T18:22:19.444Z,62.50
2018-05-09T18:24:47.002Z,62.80
2018-05-09T18:27:14.514Z,63.70
2018-05-09T18:29:43.572Z,64.10
2018-05-09T18:32:11.877Z,64.10
2018-05-09T18:34:39.594Z,64.40
2018-05-09T18:37:07.127Z,64.80
2018-05-09T18:39:35.413Z,65.30
2018-05-09T18:42:02.983Z,65.30
2018-05-09T18:44:30.653Z,65.20
2018-05-09T18:46:58.192Z,65.70
2018-05-09T18:49:26.452Z,66.90
2018-05-09T18:51:54.764Z,67.50
2018-05-09T18:54:22.260Z,67.50
2018-05-09T18:56:49.813Z,67.60
2018-05-09T18:59:17.327Z,68.50
2018-05-09T19:01:44.874Z,68.90
2018-05-09T19:04:12.387Z,69.50
2018-05-09T19:06:39.925Z,69.40
2018-05-09T19:09:07.439Z,69.40
2018-05-09T19:11:35.001Z,69.30
2018-05-09T19:14:03.299Z,69.30
2018-05-09T19:16:30.890Z,69.30
2018-05-09T19:18:58.444Z,70.60
2018-05-09T19:21:26.015Z,70.40
2018-05-09T19:23:53.511Z,70.70
2018-05-09T19:26:21.851Z,70.90
2018-05-09T19:28:49.392Z,70.90
2018-05-09T19:31:16.892Z,71.10
2018-05-09T19:33:44.456Z,71.50
2018-05-09T19:36:12.531Z,71.10
2018-05-09T19:38:40.117Z,70.80
2018-05-09T19:41:07.626Z,71.40
2018-05-09T19:43:35.183Z,71.60
2018-05-09T19:46:02.680Z,71.60
2018-05-09T19:48:31.067Z,72.90
2018-05-09T19:50:58.559Z,72.90
2018-05-09T19:53:26.082Z,72.10
2018-05-09T19:55:54.399Z,72.90
2018-05-09T19:58:21.917Z,72.90
2018-05-09T20:00:49.475Z,73.10
2018-05-09T20:03:17.744Z,73.20
2018-05-09T20:05:46.062Z,73.20
2018-05-09T20:08:13.568Z,73.20
2018-05-09T20:10:41.107Z,73.20
2018-05-09T20:13:08.630Z,73.00
2018-05-09T20:15:36.224Z,73.20
2018-05-09T20:18:03.725Z,73.50
2018-05-09T20:20:32.041Z,73.90
2018-05-09T20:22:59.542Z,73.90
2018-05-09T20:25:28.588Z,74.10
2018-05-09T20:27:56.104Z,74.00
2018-05-09T20:30:44.570Z,74.40
2018-05-09T20:33:12.848Z,74.30
2018-05-09T20:35:41.159Z,74.40
2018-05-09T20:38:08.666Z,74.40
2018-05-09T20:40:36.202Z,73.80
2018-05-09T20:43:04.559Z,74.10
2018-05-09T20:45:32.078Z,74.00
2018-05-09T20:47:59.620Z,73.10
2018-05-09T20:50:27.896Z,74.00
2018-05-09T20:52:56.209Z,73.20
2018-05-09T20:55:28.553Z,73.10
2018-05-09T20:57:56.871Z,73.80
2018-05-09T21:00:24.405Z,73.70
2018-05-09T21:02:54.058Z,74.20
2018-05-09T21:05:21.550Z,74.10
2018-05-09T21:07:55.848Z,74.20
2018-05-09T21:10:23.362Z,73.50
2018-05-09T21:12:50.907Z,73.10
2018-05-09T21:15:18.432Z,73.00
2018-05-09T21:17:45.979Z,73.40
2018-05-09T21:20:13.500Z,73.00
2018-05-09T21:22:41.057Z,73.50
2018-05-09T21:25:08.609Z,74.10
2018-05-09T21:27:36.200Z,74.20
2018-05-09T21:30:03.804Z,74.20
2018-05-09T21:32:32.075Z,74.50
2018-05-09T21:35:00.379Z,74.70
2018-05-09T21:37:27.888Z,74.50
2018-05-09T21:39:55.613Z,74.30
2018-05-09T21:42:23.281Z,74.40
2018-05-09T21:44:50.823Z,74.70
2018-05-09T21:47:18.353Z,74.20
2018-05-09T21:49:45.977Z,74.20
2018-05-09T21:52:13.489Z,74.20
2018-05-09T21:54:41.051Z,74.80
2018-05-09T21:57:08.555Z,74.60
2018-05-09T21:59:36.095Z,74.90
2018-05-09T22:02:03.609Z,75.70
2018-05-09T22:04:31.921Z,75.70
2018-05-09T22:06:59.431Z,75.50
2018-05-09T22:09:26.943Z,76.50
2018-05-09T22:11:54.494Z,76.50
2018-05-09T22:14:22.003Z,76.50
2018-05-09T22:16:49.547Z,76.40
2018-05-09T22:19:17.050Z,77.00
2018-05-09T22:21:45.350Z,77.10
2018-05-09T22:24:12.869Z,77.00
2018-05-09T22:26:40.406Z,76.10
2018-05-09T22:29:07.925Z,76.50
2018-05-09T22:31:35.455Z,76.00
2018-05-09T22:34:02.966Z,76.80
2018-05-09T22:36:30.613Z,76.80
2018-05-09T22:38:58.122Z,77.20
2018-05-09T22:41:25.667Z,77.50
2018-05-09T22:43:53.170Z,76.90
2018-05-09T22:46:20.707Z,76.80
2018-05-09T22:48:48.967Z,78.10
2018-05-09T22:51:16.538Z,78.00
2018-05-09T22:53:44.093Z,77.50
2018-05-09T22:56:11.590Z,77.30
2018-05-09T22:58:39.127Z,77.50
2018-05-09T23:01:06.630Z,76.80
2018-05-09T23:03:34.193Z,77.00
2018-05-09T23:06:01.688Z,77.70
2018-05-09T23:08:29.239Z,77.40
2018-05-09T23:10:56.787Z,77.70
2018-05-09T23:13:24.310Z,78.20
2018-05-09T23:15:51.850Z,78.30
2018-05-09T23:18:19.354Z,78.00
2018-05-09T23:20:46.906Z,78.20
2018-05-09T23:23:14.414Z,77.90
2018-05-09T23:25:42.718Z,77.20
2018-05-09T23:28:10.215Z,77.10
2018-05-09T23:30:37.764Z,77.80
2018-05-09T23:33:05.287Z,77.90
2018-05-09T23:35:32.820Z,77.80
2018-05-09T23:38:00.329Z,78.00
2018-05-09T23:40:27.871Z,78.40
2018-05-09T23:42:55.375Z,79.20
2018-05-09T23:45:22.914Z,78.30
2018-05-09T23:47:50.407Z,78.60
2018-05-09T23:50:18.726Z,79.30
2018-05-09T23:52:46.242Z,79.20
2018-05-09T23:55:14.541Z,79.50
2018-05-09T23:57:42.038Z,79.50
